sensor_id;sensor_type;location;lat;lon;timestamp;temperature;humidity
37518;DHT22;23366;52.498;13.446;2022-11-12T00:00:51;8.80;99.90
37518;DHT22;23366;52.498;13.446;2022-11-12T00:03:16;8.70;99.90
37518;DHT22;23366;52.498;13.446;2022-11-12T00:05:44;8.70;99.90
37518;DHT22;23366;52.498;13.446;2022-11-12T00:08:09;8.70;99.90
37518;DHT22;23366;52.498;13.446;2022-11-12T00:10:35;8.70;99.90
37518;DHT22;23366;52.498;13.446;2022-11-12T00:13:02;8.70;99.90
37518;DHT22;23366;52.498;13.446;2022-11-12T00:15:27;8.70;99.90
37518;DHT22;23366;52.498;13.446;2022-11-12T00:17:54;8.70;99.90
37518;DHT22;23366;52.498;13.446;2022-11-12T00:20:25;8.60;99.90
37518;DHT22;23366;52.498;13.446;2022-11-12T00:22:50;8.60;99.90
37518;DHT22;23366;52.498;13.446;2022-11-12T00:25:16;8.60;99.90
37518;DHT22;23366;52.498;13.446;2022-11-12T00:27:41;8.60;99.90
37518;DHT22;23366;52.498;13.446;2022-11-12T00:30:07;8.60;99.90
37518;DHT22;23366;52.498;13.446;2022-11-12T00:32:36;8.60;99.90
37518;DHT22;23366;52.498;13.446;2022-11-12T00:35:03;8.60;99.90
37518;DHT22;23366;52.498;13.446;2022-11-12T00:37:29;8.50;99.90
37518;DHT22;23366;52.498;13.446;2022-11-12T00:39:54;8.50;99.90
37518;DHT22;23366;52.498;13.446;2022-11-12T00:42:20;8.50;99.90
37518;DHT22;23366;52.498;13.446;2022-11-12T00:44:46;8.50;99.90
37518;DHT22;23366;52.498;13.446;2022-11-12T00:47:11;8.50;99.90
37518;DHT22;23366;52.498;13.446;2022-11-12T00:49:37;8.50;99.90
37518;DHT22;23366;52.498;13.446;2022-11-12T00:52:02;8.50;99.90
37518;DHT22;23366;52.498;13.446;2022-11-12T00:54:28;8.50;99.90
37518;DHT22;23366;52.498;13.446;2022-11-12T00:56:53;8.60;99.90
37518;DHT22;23366;52.498;13.446;2022-11-12T00:59:19;8.60;99.90
37518;DHT22;23366;52.498;13.446;2022-11-12T01:01:44;8.60;99.90
37518;DHT22;23366;52.498;13.446;2022-11-12T01:04:10;8.60;99.90
37518;DHT22;23366;52.498;13.446;2022-11-12T01:06:38;8.60;99.90
37518;DHT22;23366;52.498;13.446;2022-11-12T01:09:05;8.60;99.90
37518;DHT22;23366;52.498;13.446;2022-11-12T01:11:31;8.70;99.90
37518;DHT22;23366;52.498;13.446;2022-11-12T01:13:59;8.70;99.90
37518;DHT22;23366;52.498;13.446;2022-11-12T01:16:27;8.70;99.90
37518;DHT22;23366;52.498;13.446;2022-11-12T01:18:58;8.70;99.90
37518;DHT22;23366;52.498;13.446;2022-11-12T01:21:26;8.70;99.90
37518;DHT22;23366;52.498;13.446;2022-11-12T01:23:52;8.70;99.90
37518;DHT22;23366;52.498;13.446;2022-11-12T01:26:20;8.70;99.90
37518;DHT22;23366;52.498;13.446;2022-11-12T01:28:46;8.70;99.90
37518;DHT22;23366;52.498;13.446;2022-11-12T01:31:19;8.70;99.90
37518;DHT22;23366;52.498;13.446;2022-11-12T01:33:48;8.70;99.90
37518;DHT22;23366;52.498;13.446;2022-11-12T01:36:16;8.70;99.90
37518;DHT22;23366;52.498;13.446;2022-11-12T01:38:43;8.70;99.90
37518;DHT22;23366;52.498;13.446;2022-11-12T01:41:12;8.70;99.90
37518;DHT22;23366;52.498;13.446;2022-11-12T01:43:38;8.70;99.90
37518;DHT22;23366;52.498;13.446;2022-11-12T01:46:18;8.70;99.90
37518;DHT22;23366;52.498;13.446;2022-11-12T01:49:15;8.70;99.90
37518;DHT22;23366;52.498;13.446;2022-11-12T01:51:46;8.60;99.90
37518;DHT22;23366;52.498;13.446;2022-11-12T01:54:14;8.70;99.90
37518;DHT22;23366;52.498;13.446;2022-11-12T01:56:41;8.60;99.90
37518;DHT22;23366;52.498;13.446;2022-11-12T01:59:11;8.60;99.90
37518;DHT22;23366;52.498;13.446;2022-11-12T02:01:39;8.60;99.90
37518;DHT22;23366;52.498;13.446;2022-11-12T02:04:05;8.60;99.90
37518;DHT22;23366;52.498;13.446;2022-11-12T02:06:31;8.60;99.90
37518;DHT22;23366;52.498;13.446;2022-11-12T02:08:57;8.60;99.90
37518;DHT22;23366;52.498;13.446;2022-11-12T02:11:22;8.60;99.90
37518;DHT22;23366;52.498;13.446;2022-11-12T02:13:50;8.50;99.90
37518;DHT22;23366;52.498;13.446;2022-11-12T02:16:26;8.60;99.90
37518;DHT22;23366;52.498;13.446;2022-11-12T02:18:52;8.50;99.90
37518;DHT22;23366;52.498;13.446;2022-11-12T02:21:23;8.50;99.90
37518;DHT22;23366;52.498;13.446;2022-11-12T02:26:49;8.50;99.90
37518;DHT22;23366;52.498;13.446;2022-11-12T02:29:17;8.50;99.90
37518;DHT22;23366;52.498;13.446;2022-11-12T02:31:42;8.50;99.90
37518;DHT22;23366;52.498;13.446;2022-11-12T02:34:08;8.50;99.90
37518;DHT22;23366;52.498;13.446;2022-11-12T02:36:33;8.50;99.90
37518;DHT22;23366;52.498;13.446;2022-11-12T02:38:59;8.50;99.90
37518;DHT22;23366;52.498;13.446;2022-11-12T02:41:24;8.50;99.90
37518;DHT22;23366;52.498;13.446;2022-11-12T02:43:50;8.50;99.90
37518;DHT22;23366;52.498;13.446;2022-11-12T02:46:16;8.40;99.90
37518;DHT22;23366;52.498;13.446;2022-11-12T02:48:41;8.40;99.90
37518;DHT22;23366;52.498;13.446;2022-11-12T02:51:07;8.40;99.90
37518;DHT22;23366;52.498;13.446;2022-11-12T02:53:32;8.40;99.90
37518;DHT22;23366;52.498;13.446;2022-11-12T02:55:59;8.40;99.90
37518;DHT22;23366;52.498;13.446;2022-11-12T02:58:26;8.40;99.90
37518;DHT22;23366;52.498;13.446;2022-11-12T03:00:52;8.40;99.90
37518;DHT22;23366;52.498;13.446;2022-11-12T03:03:18;8.40;99.90
37518;DHT22;23366;52.498;13.446;2022-11-12T03:05:44;8.40;99.90
37518;DHT22;23366;52.498;13.446;2022-11-12T03:08:10;8.40;99.90
37518;DHT22;23366;52.498;13.446;2022-11-12T03:10:37;8.30;99.90
37518;DHT22;23366;52.498;13.446;2022-11-12T03:13:03;8.40;99.90
37518;DHT22;23366;52.498;13.446;2022-11-12T03:15:29;8.30;99.90
37518;DHT22;23366;52.498;13.446;2022-11-12T03:17:58;8.30;99.90
37518;DHT22;23366;52.498;13.446;2022-11-12T03:20:25;8.30;99.90
37518;DHT22;23366;52.498;13.446;2022-11-12T03:23:01;8.30;99.90
37518;DHT22;23366;52.498;13.446;2022-11-12T03:25:27;8.30;99.90
37518;DHT22;23366;52.498;13.446;2022-11-12T03:28:04;8.30;99.90
37518;DHT22;23366;52.498;13.446;2022-11-12T03:30:33;8.30;99.90
37518;DHT22;23366;52.498;13.446;2022-11-12T03:32:59;8.30;99.90
37518;DHT22;23366;52.498;13.446;2022-11-12T03:35:25;8.20;99.90
37518;DHT22;23366;52.498;13.446;2022-11-12T03:37:51;8.20;99.90
37518;DHT22;23366;52.498;13.446;2022-11-12T03:40:18;8.20;99.90
37518;DHT22;23366;52.498;13.446;2022-11-12T03:42:45;8.20;99.90
37518;DHT22;23366;52.498;13.446;2022-11-12T03:45:11;8.20;99.90
37518;DHT22;23366;52.498;13.446;2022-11-12T03:47:43;8.20;99.90
37518;DHT22;23366;52.498;13.446;2022-11-12T03:50:09;8.10;99.90
37518;DHT22;23366;52.498;13.446;2022-11-12T03:52:35;8.10;99.90
37518;DHT22;23366;52.498;13.446;2022-11-12T03:55:04;8.10;99.90
37518;DHT22;23366;52.498;13.446;2022-11-12T03:57:30;8.10;99.90
37518;DHT22;23366;52.498;13.446;2022-11-12T03:59:56;8.10;99.90
37518;DHT22;23366;52.498;13.446;2022-11-12T04:02:21;8.10;99.90
37518;DHT22;23366;52.498;13.446;2022-11-12T04:04:47;8.10;99.90
37518;DHT22;23366;52.498;13.446;2022-11-12T04:07:31;8.10;99.90
37518;DHT22;23366;52.498;13.446;2022-11-12T04:10:15;8.00;99.90
37518;DHT22;23366;52.498;13.446;2022-11-12T04:12:41;8.00;99.90
37518;DHT22;23366;52.498;13.446;2022-11-12T04:15:25;8.00;99.90
37518;DHT22;23366;52.498;13.446;2022-11-12T04:17:52;8.00;99.90
37518;DHT22;23366;52.498;13.446;2022-11-12T04:20:36;8.00;99.90
37518;DHT22;23366;52.498;13.446;2022-11-12T04:23:20;8.00;99.90
37518;DHT22;23366;52.498;13.446;2022-11-12T04:25:45;7.90;99.90
37518;DHT22;23366;52.498;13.446;2022-11-12T04:28:29;7.90;99.90
37518;DHT22;23366;52.498;13.446;2022-11-12T04:30:55;7.90;99.90
37518;DHT22;23366;52.498;13.446;2022-11-12T04:33:20;7.90;99.90
37518;DHT22;23366;52.498;13.446;2022-11-12T04:35:47;7.90;99.90
37518;DHT22;23366;52.498;13.446;2022-11-12T04:38:12;7.90;99.90
37518;DHT22;23366;52.498;13.446;2022-11-12T04:40:38;7.80;99.90
37518;DHT22;23366;52.498;13.446;2022-11-12T04:43:22;7.80;99.90
37518;DHT22;23366;52.498;13.446;2022-11-12T04:46:06;7.80;99.90
37518;DHT22;23366;52.498;13.446;2022-11-12T04:48:31;7.80;99.90
37518;DHT22;23366;52.498;13.446;2022-11-12T04:50:59;7.80;99.90
37518;DHT22;23366;52.498;13.446;2022-11-12T04:53:25;7.80;99.90
37518;DHT22;23366;52.498;13.446;2022-11-12T04:55:54;7.70;99.90
37518;DHT22;23366;52.498;13.446;2022-11-12T04:58:22;7.80;99.90
37518;DHT22;23366;52.498;13.446;2022-11-12T05:00:48;7.70;99.90
37518;DHT22;23366;52.498;13.446;2022-11-12T05:03:15;7.70;99.90
37518;DHT22;23366;52.498;13.446;2022-11-12T05:05:40;7.70;99.90
37518;DHT22;23366;52.498;13.446;2022-11-12T05:08:06;7.70;99.90
37518;DHT22;23366;52.498;13.446;2022-11-12T05:10:31;7.70;99.90
37518;DHT22;23366;52.498;13.446;2022-11-12T05:12:57;7.70;99.90
37518;DHT22;23366;52.498;13.446;2022-11-12T05:15:22;7.70;99.90
37518;DHT22;23366;52.498;13.446;2022-11-12T05:17:48;7.60;99.90
37518;DHT22;23366;52.498;13.446;2022-11-12T05:20:16;7.60;99.90
37518;DHT22;23366;52.498;13.446;2022-11-12T05:22:41;7.60;99.90
37518;DHT22;23366;52.498;13.446;2022-11-12T05:25:07;7.60;99.90
37518;DHT22;23366;52.498;13.446;2022-11-12T05:27:34;7.60;99.90
37518;DHT22;23366;52.498;13.446;2022-11-12T05:30:00;7.60;99.90
37518;DHT22;23366;52.498;13.446;2022-11-12T05:32:25;7.50;99.90
37518;DHT22;23366;52.498;13.446;2022-11-12T05:34:51;7.50;99.90
37518;DHT22;23366;52.498;13.446;2022-11-12T05:37:17;7.50;99.90
37518;DHT22;23366;52.498;13.446;2022-11-12T05:39:42;7.50;99.90
37518;DHT22;23366;52.498;13.446;2022-11-12T05:42:08;7.50;99.90
37518;DHT22;23366;52.498;13.446;2022-11-12T05:44:33;7.50;99.90
37518;DHT22;23366;52.498;13.446;2022-11-12T05:46:59;7.50;99.90
37518;DHT22;23366;52.498;13.446;2022-11-12T05:49:24;7.50;99.90
37518;DHT22;23366;52.498;13.446;2022-11-12T05:51:50;7.40;99.90
37518;DHT22;23366;52.498;13.446;2022-11-12T05:54:16;7.40;99.90
37518;DHT22;23366;52.498;13.446;2022-11-12T05:56:42;7.40;99.90
37518;DHT22;23366;52.498;13.446;2022-11-12T05:59:11;7.40;99.90
37518;DHT22;23366;52.498;13.446;2022-11-12T06:01:37;7.40;99.90
37518;DHT22;23366;52.498;13.446;2022-11-12T06:04:12;7.30;99.90
37518;DHT22;23366;52.498;13.446;2022-11-12T06:06:39;7.30;99.90
37518;DHT22;23366;52.498;13.446;2022-11-12T06:09:05;7.30;99.90
37518;DHT22;23366;52.498;13.446;2022-11-12T06:11:31;7.30;99.90
37518;DHT22;23366;52.498;13.446;2022-11-12T06:13:57;7.30;99.90
37518;DHT22;23366;52.498;13.446;2022-11-12T06:16:22;7.30;99.90
37518;DHT22;23366;52.498;13.446;2022-11-12T06:18:48;7.30;99.90
37518;DHT22;23366;52.498;13.446;2022-11-12T06:21:13;7.30;99.90
37518;DHT22;23366;52.498;13.446;2022-11-12T06:23:50;7.30;99.90
37518;DHT22;23366;52.498;13.446;2022-11-12T06:26:16;7.30;99.90
37518;DHT22;23366;52.498;13.446;2022-11-12T06:28:42;7.30;99.90
37518;DHT22;23366;52.498;13.446;2022-11-12T06:31:08;7.30;99.90
37518;DHT22;23366;52.498;13.446;2022-11-12T06:33:33;7.30;99.90
37518;DHT22;23366;52.498;13.446;2022-11-12T06:36:00;7.30;99.90
37518;DHT22;23366;52.498;13.446;2022-11-12T06:38:28;7.40;99.90
37518;DHT22;23366;52.498;13.446;2022-11-12T06:40:54;7.40;99.90
37518;DHT22;23366;52.498;13.446;2022-11-12T06:43:20;7.40;99.90
37518;DHT22;23366;52.498;13.446;2022-11-12T06:45:45;7.50;99.90
37518;DHT22;23366;52.498;13.446;2022-11-12T06:48:11;7.50;99.90
37518;DHT22;23366;52.498;13.446;2022-11-12T06:50:36;7.50;99.90
37518;DHT22;23366;52.498;13.446;2022-11-12T06:53:02;7.50;99.90
37518;DHT22;23366;52.498;13.446;2022-11-12T06:55:52;7.60;99.90
37518;DHT22;23366;52.498;13.446;2022-11-12T06:58:56;7.70;99.90
37518;DHT22;23366;52.498;13.446;2022-11-12T07:01:25;7.80;99.90
37518;DHT22;23366;52.498;13.446;2022-11-12T07:04:11;7.90;99.90
37518;DHT22;23366;52.498;13.446;2022-11-12T07:06:37;8.00;99.90
37518;DHT22;23366;52.498;13.446;2022-11-12T07:09:03;8.10;99.90
37518;DHT22;23366;52.498;13.446;2022-11-12T07:11:42;8.30;99.90
37518;DHT22;23366;52.498;13.446;2022-11-12T07:14:09;8.50;99.90
37518;DHT22;23366;52.498;13.446;2022-11-12T07:16:34;8.70;99.90
37518;DHT22;23366;52.498;13.446;2022-11-12T07:19:00;8.90;99.90
37518;DHT22;23366;52.498;13.446;2022-11-12T07:21:26;9.00;99.90
37518;DHT22;23366;52.498;13.446;2022-11-12T07:23:51;9.20;99.90
37518;DHT22;23366;52.498;13.446;2022-11-12T07:26:20;9.50;99.90
37518;DHT22;23366;52.498;13.446;2022-11-12T07:28:47;9.80;99.90
37518;DHT22;23366;52.498;13.446;2022-11-12T07:31:14;10.10;99.90
37518;DHT22;23366;52.498;13.446;2022-11-12T07:33:40;10.50;99.90
37518;DHT22;23366;52.498;13.446;2022-11-12T07:36:11;10.90;99.90
37518;DHT22;23366;52.498;13.446;2022-11-12T07:38:39;11.30;99.90
37518;DHT22;23366;52.498;13.446;2022-11-12T07:41:10;11.60;99.90
37518;DHT22;23366;52.498;13.446;2022-11-12T07:43:37;11.70;99.90
37518;DHT22;23366;52.498;13.446;2022-11-12T07:46:09;11.80;99.90
37518;DHT22;23366;52.498;13.446;2022-11-12T07:48:34;11.90;99.90
37518;DHT22;23366;52.498;13.446;2022-11-12T07:51:01;12.20;99.90
37518;DHT22;23366;52.498;13.446;2022-11-12T07:53:27;12.30;99.90
37518;DHT22;23366;52.498;13.446;2022-11-12T07:55:57;12.30;99.90
37518;DHT22;23366;52.498;13.446;2022-11-12T07:58:23;12.10;99.90
37518;DHT22;23366;52.498;13.446;2022-11-12T08:00:49;11.90;99.90
37518;DHT22;23366;52.498;13.446;2022-11-12T08:03:15;11.70;99.90
37518;DHT22;23366;52.498;13.446;2022-11-12T08:05:40;11.50;99.90
37518;DHT22;23366;52.498;13.446;2022-11-12T08:08:06;11.30;99.90
37518;DHT22;23366;52.498;13.446;2022-11-12T08:10:31;11.00;99.90
37518;DHT22;23366;52.498;13.446;2022-11-12T08:12:57;10.90;99.90
37518;DHT22;23366;52.498;13.446;2022-11-12T08:15:23;10.90;99.90
37518;DHT22;23366;52.498;13.446;2022-11-12T08:17:48;10.60;99.90
37518;DHT22;23366;52.498;13.446;2022-11-12T08:20:14;10.60;99.90
37518;DHT22;23366;52.498;13.446;2022-11-12T08:22:40;10.60;99.90
37518;DHT22;23366;52.498;13.446;2022-11-12T08:25:06;10.50;99.90
37518;DHT22;23366;52.498;13.446;2022-11-12T08:27:32;10.70;99.90
37518;DHT22;23366;52.498;13.446;2022-11-12T08:29:58;10.80;99.90
37518;DHT22;23366;52.498;13.446;2022-11-12T08:32:28;11.00;99.90
37518;DHT22;23366;52.498;13.446;2022-11-12T08:34:54;11.20;99.90
37518;DHT22;23366;52.498;13.446;2022-11-12T08:37:20;11.40;99.90
37518;DHT22;23366;52.498;13.446;2022-11-12T08:39:45;11.60;99.90
37518;DHT22;23366;52.498;13.446;2022-11-12T08:42:11;11.70;99.90
37518;DHT22;23366;52.498;13.446;2022-11-12T08:44:36;11.80;99.90
37518;DHT22;23366;52.498;13.446;2022-11-12T08:47:02;12.00;99.90
37518;DHT22;23366;52.498;13.446;2022-11-12T08:49:27;12.10;99.90
37518;DHT22;23366;52.498;13.446;2022-11-12T08:51:53;12.20;99.90
37518;DHT22;23366;52.498;13.446;2022-11-12T08:54:20;12.20;99.90
37518;DHT22;23366;52.498;13.446;2022-11-12T08:56:47;12.30;99.90
37518;DHT22;23366;52.498;13.446;2022-11-12T08:59:12;12.30;99.90
37518;DHT22;23366;52.498;13.446;2022-11-12T09:01:38;12.20;99.90
37518;DHT22;23366;52.498;13.446;2022-11-12T09:04:04;12.30;99.90
37518;DHT22;23366;52.498;13.446;2022-11-12T09:06:30;12.20;99.90
37518;DHT22;23366;52.498;13.446;2022-11-12T09:08:55;12.20;99.90
37518;DHT22;23366;52.498;13.446;2022-11-12T09:11:21;12.30;99.90
37518;DHT22;23366;52.498;13.446;2022-11-12T09:13:46;12.20;99.90
37518;DHT22;23366;52.498;13.446;2022-11-12T09:16:12;12.20;99.90
37518;DHT22;23366;52.498;13.446;2022-11-12T09:18:38;12.20;99.90
37518;DHT22;23366;52.498;13.446;2022-11-12T09:21:09;12.30;99.90
37518;DHT22;23366;52.498;13.446;2022-11-12T09:23:35;12.30;99.90
37518;DHT22;23366;52.498;13.446;2022-11-12T09:26:04;12.30;99.90
37518;DHT22;23366;52.498;13.446;2022-11-12T09:28:30;12.30;99.90
37518;DHT22;23366;52.498;13.446;2022-11-12T09:30:56;12.20;99.90
37518;DHT22;23366;52.498;13.446;2022-11-12T09:33:24;12.20;99.90
37518;DHT22;23366;52.498;13.446;2022-11-12T09:35:52;12.20;99.90
37518;DHT22;23366;52.498;13.446;2022-11-12T09:38:18;12.30;99.90
37518;DHT22;23366;52.498;13.446;2022-11-12T09:45:46;12.60;99.90
37518;DHT22;23366;52.498;13.446;2022-11-12T09:48:17;12.70;99.90
37518;DHT22;23366;52.498;13.446;2022-11-12T09:50:59;12.70;99.90
37518;DHT22;23366;52.498;13.446;2022-11-12T09:53:33;12.80;99.90
37518;DHT22;23366;52.498;13.446;2022-11-12T09:56:00;12.80;99.90
37518;DHT22;23366;52.498;13.446;2022-11-12T09:58:29;12.90;99.90
37518;DHT22;23366;52.498;13.446;2022-11-12T10:00:57;13.00;99.90
37518;DHT22;23366;52.498;13.446;2022-11-12T10:03:36;13.00;99.90
37518;DHT22;23366;52.498;13.446;2022-11-12T10:06:11;12.90;99.90
37518;DHT22;23366;52.498;13.446;2022-11-12T10:14:13;12.80;99.90
37518;DHT22;23366;52.498;13.446;2022-11-12T10:17:02;12.80;99.90
37518;DHT22;23366;52.498;13.446;2022-11-12T10:19:35;12.90;99.90
37518;DHT22;23366;52.498;13.446;2022-11-12T10:24:53;12.80;99.90
37518;DHT22;23366;52.498;13.446;2022-11-12T10:27:26;12.90;99.90
37518;DHT22;23366;52.498;13.446;2022-11-12T10:30:08;12.90;99.90
37518;DHT22;23366;52.498;13.446;2022-11-12T10:32:42;13.00;99.90
37518;DHT22;23366;52.498;13.446;2022-11-12T10:35:10;13.10;99.90
37518;DHT22;23366;52.498;13.446;2022-11-12T10:37:43;13.20;99.90
37518;DHT22;23366;52.498;13.446;2022-11-12T10:40:37;13.30;99.90
37518;DHT22;23366;52.498;13.446;2022-11-12T10:43:23;13.40;99.90
37518;DHT22;23366;52.498;13.446;2022-11-12T10:45:49;13.50;99.90
37518;DHT22;23366;52.498;13.446;2022-11-12T10:50:45;13.70;99.90
37518;DHT22;23366;52.498;13.446;2022-11-12T10:53:11;13.80;99.90
37518;DHT22;23366;52.498;13.446;2022-11-12T10:55:54;13.90;99.90
37518;DHT22;23366;52.498;13.446;2022-11-12T10:58:20;14.00;99.90
37518;DHT22;23366;52.498;13.446;2022-11-12T11:01:11;14.00;99.90
37518;DHT22;23366;52.498;13.446;2022-11-12T11:03:50;14.10;99.90
37518;DHT22;23366;52.498;13.446;2022-11-12T11:06:23;14.20;99.90
37518;DHT22;23366;52.498;13.446;2022-11-12T11:08:50;14.30;99.90
37518;DHT22;23366;52.498;13.446;2022-11-12T11:13:43;14.40;99.90
37518;DHT22;23366;52.498;13.446;2022-11-12T11:16:13;14.40;99.90
37518;DHT22;23366;52.498;13.446;2022-11-12T11:18:40;14.50;99.90
37518;DHT22;23366;52.498;13.446;2022-11-12T11:21:19;14.50;99.90
37518;DHT22;23366;52.498;13.446;2022-11-12T11:23:55;14.50;99.90
37518;DHT22;23366;52.498;13.446;2022-11-12T11:26:31;14.40;99.90
37518;DHT22;23366;52.498;13.446;2022-11-12T11:31:49;14.40;99.90
37518;DHT22;23366;52.498;13.446;2022-11-12T11:34:42;14.30;99.90
37518;DHT22;23366;52.498;13.446;2022-11-12T11:37:26;14.20;99.90
37518;DHT22;23366;52.498;13.446;2022-11-12T11:48:41;13.80;99.90
37518;DHT22;23366;52.498;13.446;2022-11-12T11:51:33;13.70;99.90
37518;DHT22;23366;52.498;13.446;2022-11-12T11:54:24;13.60;99.90
37518;DHT22;23366;52.498;13.446;2022-11-12T11:56:58;13.60;99.90
37518;DHT22;23366;52.498;13.446;2022-11-12T11:59:40;13.50;99.90
37518;DHT22;23366;52.498;13.446;2022-11-12T12:02:31;13.50;99.90
37518;DHT22;23366;52.498;13.446;2022-11-12T12:08:07;13.50;99.90
37518;DHT22;23366;52.498;13.446;2022-11-12T12:16:46;13.50;99.90
37518;DHT22;23366;52.498;13.446;2022-11-12T12:19:26;13.50;99.90
37518;DHT22;23366;52.498;13.446;2022-11-12T12:21:57;13.50;99.90
37518;DHT22;23366;52.498;13.446;2022-11-12T12:24:44;13.50;99.90
37518;DHT22;23366;52.498;13.446;2022-11-12T12:27:17;13.50;99.90
37518;DHT22;23366;52.498;13.446;2022-11-12T12:29:45;13.40;99.90
37518;DHT22;23366;52.498;13.446;2022-11-12T12:32:34;13.30;99.90
37518;DHT22;23366;52.498;13.446;2022-11-12T12:37:38;13.30;99.90
37518;DHT22;23366;52.498;13.446;2022-11-12T12:40:20;13.30;99.90
37518;DHT22;23366;52.498;13.446;2022-11-12T12:42:54;13.20;99.90
37518;DHT22;23366;52.498;13.446;2022-11-12T12:45:41;13.20;99.90
37518;DHT22;23366;52.498;13.446;2022-11-12T12:48:31;13.20;99.90
37518;DHT22;23366;52.498;13.446;2022-11-12T12:50:57;13.20;99.90
37518;DHT22;23366;52.498;13.446;2022-11-12T12:55:54;13.20;99.90
37518;DHT22;23366;52.498;13.446;2022-11-12T12:58:31;13.10;99.90
37518;DHT22;23366;52.498;13.446;2022-11-12T13:01:49;13.10;99.90
37518;DHT22;23366;52.498;13.446;2022-11-12T13:04:03;13.10;99.90
37518;DHT22;23366;52.498;13.446;2022-11-12T13:35:34;13.10;99.90
37518;DHT22;23366;52.498;13.446;2022-11-12T13:43:45;13.10;99.90
37518;DHT22;23366;52.498;13.446;2022-11-12T13:46:27;13.00;99.90
37518;DHT22;23366;52.498;13.446;2022-11-12T13:49:02;13.00;99.90
37518;DHT22;23366;52.498;13.446;2022-11-12T13:51:34;13.00;99.90
37518;DHT22;23366;52.498;13.446;2022-11-12T13:54:02;13.00;99.90
37518;DHT22;23366;52.498;13.446;2022-11-12T13:56:49;13.00;99.90
37518;DHT22;23366;52.498;13.446;2022-11-12T13:59:17;12.90;99.90
37518;DHT22;23366;52.498;13.446;2022-11-12T14:01:44;12.90;99.90
37518;DHT22;23366;52.498;13.446;2022-11-12T14:04:16;12.90;99.90
37518;DHT22;23366;52.498;13.446;2022-11-12T14:06:51;12.90;99.90
37518;DHT22;23366;52.498;13.446;2022-11-12T14:12:27;12.80;99.90
37518;DHT22;23366;52.498;13.446;2022-11-12T14:20:53;12.80;99.90
37518;DHT22;23366;52.498;13.446;2022-11-12T14:23:20;12.70;99.90
37518;DHT22;23366;52.498;13.446;2022-11-12T14:25:51;12.70;99.90
37518;DHT22;23366;52.498;13.446;2022-11-12T14:28:44;12.70;99.90
37518;DHT22;23366;52.498;13.446;2022-11-12T14:31:14;12.70;99.90
37518;DHT22;23366;52.498;13.446;2022-11-12T14:33:39;12.60;99.90
37518;DHT22;23366;52.498;13.446;2022-11-12T14:36:09;12.60;99.90
37518;DHT22;23366;52.498;13.446;2022-11-12T14:38:46;12.50;99.90
37518;DHT22;23366;52.498;13.446;2022-11-12T14:41:24;12.50;99.90
37518;DHT22;23366;52.498;13.446;2022-11-12T14:43:53;12.50;99.90
37518;DHT22;23366;52.498;13.446;2022-11-12T14:46:52;12.40;99.90
37518;DHT22;23366;52.498;13.446;2022-11-12T14:49:35;12.40;99.90
37518;DHT22;23366;52.498;13.446;2022-11-12T14:52:21;12.30;99.90
37518;DHT22;23366;52.498;13.446;2022-11-12T14:54:50;12.30;99.90
37518;DHT22;23366;52.498;13.446;2022-11-12T14:57:26;12.20;99.90
37518;DHT22;23366;52.498;13.446;2022-11-12T14:59:52;12.20;99.90
37518;DHT22;23366;52.498;13.446;2022-11-12T15:02:22;12.10;99.90
37518;DHT22;23366;52.498;13.446;2022-11-12T15:04:57;12.10;99.90
37518;DHT22;23366;52.498;13.446;2022-11-12T15:07:27;12.00;99.90
37518;DHT22;23366;52.498;13.446;2022-11-12T15:09:53;12.00;99.90
37518;DHT22;23366;52.498;13.446;2022-11-12T15:12:24;12.00;99.90
37518;DHT22;23366;52.498;13.446;2022-11-12T15:14:51;11.90;99.90
37518;DHT22;23366;52.498;13.446;2022-11-12T15:17:32;11.90;99.90
37518;DHT22;23366;52.498;13.446;2022-11-12T15:20:04;11.90;99.90
37518;DHT22;23366;52.498;13.446;2022-11-12T15:22:31;11.80;99.90
37518;DHT22;23366;52.498;13.446;2022-11-12T15:27:40;11.70;99.90
37518;DHT22;23366;52.498;13.446;2022-11-12T15:30:17;11.60;99.90
37518;DHT22;23366;52.498;13.446;2022-11-12T15:32:44;11.60;99.90
37518;DHT22;23366;52.498;13.446;2022-11-12T15:37:51;11.60;99.90
37518;DHT22;23366;52.498;13.446;2022-11-12T15:40:20;11.50;99.90
37518;DHT22;23366;52.498;13.446;2022-11-12T15:42:46;11.50;99.90
37518;DHT22;23366;52.498;13.446;2022-11-12T15:45:13;11.40;99.90
37518;DHT22;23366;52.498;13.446;2022-11-12T15:47:39;11.40;99.90
37518;DHT22;23366;52.498;13.446;2022-11-12T15:50:18;11.30;99.90
37518;DHT22;23366;52.498;13.446;2022-11-12T15:52:44;11.30;99.90
37518;DHT22;23366;52.498;13.446;2022-11-12T15:55:13;11.30;99.90
37518;DHT22;23366;52.498;13.446;2022-11-12T15:57:45;11.20;99.90
37518;DHT22;23366;52.498;13.446;2022-11-12T16:02:42;11.20;99.90
37518;DHT22;23366;52.498;13.446;2022-11-12T16:05:13;11.20;99.90
37518;DHT22;23366;52.498;13.446;2022-11-12T16:07:39;11.10;99.90
37518;DHT22;23366;52.498;13.446;2022-11-12T16:10:05;11.10;99.90
37518;DHT22;23366;52.498;13.446;2022-11-12T16:12:32;11.00;99.90
37518;DHT22;23366;52.498;13.446;2022-11-12T16:14:58;11.10;99.90
37518;DHT22;23366;52.498;13.446;2022-11-12T16:17:24;11.00;99.90
37518;DHT22;23366;52.498;13.446;2022-11-12T16:19:49;11.00;99.90
37518;DHT22;23366;52.498;13.446;2022-11-12T16:22:14;11.00;99.90
37518;DHT22;23366;52.498;13.446;2022-11-12T16:24:41;11.00;99.90
37518;DHT22;23366;52.498;13.446;2022-11-12T16:27:16;11.00;99.90
37518;DHT22;23366;52.498;13.446;2022-11-12T16:29:52;10.90;99.90
37518;DHT22;23366;52.498;13.446;2022-11-12T16:32:18;10.90;99.90
37518;DHT22;23366;52.498;13.446;2022-11-12T16:34:59;10.90;99.90
37518;DHT22;23366;52.498;13.446;2022-11-12T16:37:29;10.90;99.90
37518;DHT22;23366;52.498;13.446;2022-11-12T16:39:54;10.80;99.90
37518;DHT22;23366;52.498;13.446;2022-11-12T16:42:21;10.80;99.90
37518;DHT22;23366;52.498;13.446;2022-11-12T16:44:47;10.80;99.90
37518;DHT22;23366;52.498;13.446;2022-11-12T16:47:12;10.70;99.90
37518;DHT22;23366;52.498;13.446;2022-11-12T16:49:38;10.70;99.90
37518;DHT22;23366;52.498;13.446;2022-11-12T16:52:03;10.70;99.90
37518;DHT22;23366;52.498;13.446;2022-11-12T16:54:29;10.70;99.90
37518;DHT22;23366;52.498;13.446;2022-11-12T16:56:54;10.70;99.90
37518;DHT22;23366;52.498;13.446;2022-11-12T16:59:20;10.60;99.90
37518;DHT22;23366;52.498;13.446;2022-11-12T17:01:46;10.60;99.90
37518;DHT22;23366;52.498;13.446;2022-11-12T17:04:12;10.60;99.90
37518;DHT22;23366;52.498;13.446;2022-11-12T17:06:39;10.60;99.90
37518;DHT22;23366;52.498;13.446;2022-11-12T17:09:07;10.60;99.90
37518;DHT22;23366;52.498;13.446;2022-11-12T17:11:33;10.50;99.90
37518;DHT22;23366;52.498;13.446;2022-11-12T17:14:05;10.50;99.90
37518;DHT22;23366;52.498;13.446;2022-11-12T17:16:32;10.50;99.90